Time;durP1;ratioP1;P1;durP2;ratioP2;P2;SDS_P1;SDS_P2;PMS_P1;PMS_P2;Temp;Humidity;BMP_temperature;BMP_pressure;BME280_temperature;BME280_humidity;BME280_pressure;Samples;Min_cycle;Max_cycle;Signal;HPM_P1;HPM_P2
2023/02/06 00:00:38;;;;;;;;;;;;;;;-2.58;97.75;102331.16;4936128;29;20010;-69
2023/02/06 00:03:05;;;;;;;;;;;;;;;-2.54;98.05;102325.81;4920557;29;19914;-68
2023/02/06 00:05:31;;;;;;;;;;;;;;;-2.49;97.90;102328.28;4937383;29;19925;-68
2023/02/06 00:07:56;;;;;;;;;;;;;;;-2.49;97.50;102325.66;4936980;29;19997;-68
2023/02/06 00:10:21;;;;;;;;;;;;;;;-2.54;97.48;102319.72;4936759;29;20338;-67
2023/02/06 00:12:47;;;;;;;;;;;;;;;-2.52;97.34;102325.75;4936832;29;19918;-68
2023/02/06 00:15:12;;;;;;;;;;;;;;;-2.54;97.63;102317.13;4937568;29;19911;-68
2023/02/06 00:17:37;;;;;;;;;;;;;;;-2.52;97.24;102323.16;4920193;29;19910;-66
2023/02/06 00:20:04;;;;;;;;;;;;;;;-2.50;97.64;102311.78;4936821;29;20009;-67
2023/02/06 00:22:29;;;;;;;;;;;;;;;-2.50;97.13;102308.31;4936675;29;19910;-67
2023/02/06 00:24:55;;;;;;;;;;;;;;;-2.47;97.88;102302.16;4936624;29;19918;-64
2023/02/06 00:27:20;;;;;;;;;;;;;;;-2.46;97.28;102309.94;4936768;29;19993;-68
2023/02/06 00:29:45;;;;;;;;;;;;;;;-2.45;97.47;102306.44;4936671;29;19918;-67
2023/02/06 00:32:11;;;;;;;;;;;;;;;-2.46;97.62;102294.28;4936797;29;19989;-68
2023/02/06 00:34:36;;;;;;;;;;;;;;;-2.46;97.52;102302.09;4936426;29;20311;-69
2023/02/06 00:37:01;;;;;;;;;;;;;;;-2.47;97.71;102308.22;4936559;29;20311;-67
2023/02/06 00:39:27;;;;;;;;;;;;;;;-2.45;97.82;102311.66;4936425;29;19935;-66
2023/02/06 00:41:54;;;;;;;;;;;;;;;-2.46;97.80;102309.06;4936571;29;20315;-68
2023/02/06 00:44:20;;;;;;;;;;;;;;;-2.48;97.76;102303.91;4936543;29;20009;-67
2023/02/06 00:46:45;;;;;;;;;;;;;;;-2.54;98.22;102306.69;4936377;29;20316;-67
2023/02/06 00:49:11;;;;;;;;;;;;;;;-2.56;98.29;102308.47;4936274;29;19957;-65
2023/02/06 00:51:38;;;;;;;;;;;;;;;-2.51;98.66;102309.22;4936260;29;19911;-68
2023/02/06 00:54:03;;;;;;;;;;;;;;;-2.49;99.06;102315.25;4936448;29;19918;-67
2023/02/06 00:56:29;;;;;;;;;;;;;;;-2.46;99.01;102317.75;4936113;29;19911;-69
2023/02/06 00:58:54;;;;;;;;;;;;;;;-2.45;98.25;102311.66;4919252;29;20382;-68
2023/02/06 01:01:19;;;;;;;;;;;;;;;-2.46;98.17;102314.28;4936136;29;19914;-68
2023/02/06 01:03:45;;;;;;;;;;;;;;;-2.46;98.54;102299.50;4935823;29;19922;-68
2023/02/06 01:06:10;;;;;;;;;;;;;;;-2.42;99.18;102303.72;4936087;29;20013;-67
2023/02/06 01:08:36;;;;;;;;;;;;;;;-2.39;98.75;102303.66;4936114;29;20323;-68
2023/02/06 01:11:07;;;;;;;;;;;;;;;-2.37;98.61;102301.84;4935721;29;19968;-68
2023/02/06 01:13:32;;;;;;;;;;;;;;;-2.33;98.98;102308.69;4935870;29;20378;-68
2023/02/06 01:15:58;;;;;;;;;;;;;;;-2.34;98.11;102306.97;4935989;29;19919;-68
2023/02/06 01:18:23;;;;;;;;;;;;;;;-2.35;98.81;102301.81;4937834;29;19918;-67
2023/02/06 01:20:48;;;;;;;;;;;;;;;-2.33;98.98;102297.38;4937351;29;19941;-67
2023/02/06 01:23:14;;;;;;;;;;;;;;;-2.38;99.20;102301.88;4937148;29;19911;-69
2023/02/06 01:25:39;;;;;;;;;;;;;;;-2.38;99.07;102301.88;4920347;29;19911;-66
2023/02/06 01:28:06;;;;;;;;;;;;;;;-2.33;99.75;102310.44;4938066;29;19921;-67
2023/02/06 01:30:31;;;;;;;;;;;;;;;-2.30;99.64;102306.03;4937470;29;19910;-66
2023/02/06 01:32:56;;;;;;;;;;;;;;;-2.34;100.00;102309.59;4935871;29;19958;-67
2023/02/06 01:35:22;;;;;;;;;;;;;;;-2.33;100.00;102305.22;4935578;29;20277;-68
2023/02/06 01:37:47;;;;;;;;;;;;;;;-2.36;100.00;102306.16;4935550;29;19911;-71
2023/02/06 01:40:15;;;;;;;;;;;;;;;-2.31;100.00;102298.25;4935367;29;19918;-69
2023/02/06 01:42:40;;;;;;;;;;;;;;;-2.29;100.00;102305.13;4935115;29;19997;-68
2023/02/06 01:45:31;;;;;;;;;;;;;;;-2.36;100.00;102300.09;4935586;29;20018;-67
2023/02/06 01:48:00;;;;;;;;;;;;;;;-2.36;100.00;102305.31;4935371;29;19917;-67
2023/02/06 01:50:26;;;;;;;;;;;;;;;-2.39;100.00;102306.25;4935219;29;19982;-67
2023/02/06 01:52:51;;;;;;;;;;;;;;;-2.42;100.00;102305.47;4935123;29;19926;-67
2023/02/06 01:55:25;;;;;;;;;;;;;;;-2.43;100.00;102302.03;4935023;29;19926;-68
2023/02/06 01:57:51;;;;;;;;;;;;;;;-2.42;100.00;102301.13;4935245;29;20033;-66
2023/02/06 02:00:17;;;;;;;;;;;;;;;-2.36;100.00;102306.16;4935258;29;20371;-68
2023/02/06 02:02:43;;;;;;;;;;;;;;;-2.28;100.00;102301.63;4934358;29;19910;-67
2023/02/06 02:05:10;;;;;;;;;;;;;;;-2.24;100.00;102298.00;4933866;29;19923;-69
2023/02/06 02:07:40;;;;;;;;;;;;;;;-2.21;100.00;102294.47;4935444;29;19911;-68
2023/02/06 02:10:06;;;;;;;;;;;;;;;-2.18;100.00;102294.38;4935418;29;19917;-66
2023/02/06 02:12:31;;;;;;;;;;;;;;;-2.21;100.00;102290.09;4935262;29;19915;-67
2023/02/06 02:14:57;;;;;;;;;;;;;;;-2.23;100.00;102298.88;4934417;29;19914;-69
2023/02/06 02:17:38;;;;;;;;;;;;;;;-2.28;100.00;102287.72;4934629;29;19911;-66
2023/02/06 02:20:12;;;;;;;;;;;;;;;-2.26;100.00;102291.13;4935794;29;19911;-67
2023/02/06 02:22:45;;;;;;;;;;;;;;;-2.26;100.00;102291.13;4936117;29;19953;-68
2023/02/06 02:25:13;;;;;;;;;;;;;;;-2.30;100.00;102290.38;4939491;29;20022;-65
2023/02/06 02:27:47;;;;;;;;;;;;;;;-2.25;100.00;102282.41;4940217;29;20382;-66
2023/02/06 02:30:13;;;;;;;;;;;;;;;-2.27;100.00;102289.41;4940019;29;20371;-68
2023/02/06 02:32:41;;;;;;;;;;;;;;;-2.26;100.00;102291.97;4939935;29;19947;-67
2023/02/06 02:35:13;;;;;;;;;;;;;;;-2.23;100.00;102291.03;4938961;29;19918;-67
2023/02/06 02:38:10;;;;;;;;;;;;;;;-2.23;100.00;102286.69;4938876;29;20009;-67
2023/02/06 02:40:39;;;;;;;;;;;;;;;-2.14;100.00;102279.47;4900404;29;19917;-67
2023/02/06 02:43:07;;;;;;;;;;;;;;;-2.10;100.00;102281.09;4938989;29;20340;-67
2023/02/06 02:45:47;;;;;;;;;;;;;;;-2.12;100.00;102272.44;4938744;29;19911;-66
2023/02/06 02:48:29;;;;;;;;;;;;;;;-2.16;100.00;102271.69;4938412;29;19910;-67
2023/02/06 02:50:56;;;;;;;;;;;;;;;-2.20;100.00;102283.97;4938716;29;20344;-66
2023/02/06 02:53:21;;;;;;;;;;;;;;;-2.18;100.00;102289.16;4938808;29;19910;-68
2023/02/06 02:55:47;;;;;;;;;;;;;;;-2.17;100.00;102300.44;4905602;29;19910;-66
2023/02/06 02:58:15;;;;;;;;;;;;;;;-2.15;100.00;102293.41;4939076;29;19911;-68
2023/02/06 03:00:46;;;;;;;;;;;;;;;-2.12;100.00;102301.16;4938709;29;19915;-66
2023/02/06 03:03:14;;;;;;;;;;;;;;;-2.05;100.00;102305.28;4938136;29;20379;-67
2023/02/06 03:05:46;;;;;;;;;;;;;;;-2.00;100.00;102299.06;4939152;29;20367;-67
2023/02/06 03:08:20;;;;;;;;;;;;;;;-1.94;100.00;102317.16;4938733;29;19911;-68
2023/02/06 03:10:46;;;;;;;;;;;;;;;-2.02;100.00;102306.09;4921578;29;19911;-67
2023/02/06 03:13:25;;;;;;;;;;;;;;;-2.05;100.00;102310.53;4938117;29;19918;-66
2023/02/06 03:16:09;;;;;;;;;;;;;;;-2.03;100.00;102309.56;4937787;29;19973;-65
2023/02/06 03:18:40;;;;;;;;;;;;;;;-2.00;100.00;102309.50;4937700;29;19992;-67
2023/02/06 03:21:07;;;;;;;;;;;;;;;-1.98;100.00;102317.28;4937904;29;20351;-67
2023/02/06 03:23:36;;;;;;;;;;;;;;;-2.00;100.00;102312.13;4938001;29;19914;-67
2023/02/06 03:26:04;;;;;;;;;;;;;;;-1.95;100.00;102311.97;4939036;29;19975;-67
2023/02/06 03:28:34;;;;;;;;;;;;;;;-1.91;100.00;102318.81;4922634;29;19934;-67
2023/02/06 03:31:01;;;;;;;;;;;;;;;-1.85;100.00;102326.47;4938470;29;20275;-67
2023/02/06 03:33:32;;;;;;;;;;;;;;;-1.85;100.00;102329.09;4938134;29;19918;-66
2023/02/06 03:35:57;;;;;;;;;;;;;;;-1.88;100.00;102329.19;4938590;29;19950;-67
2023/02/06 03:38:23;;;;;;;;;;;;;;;-1.92;100.00;102328.41;4938070;29;20429;-67
2023/02/06 03:40:50;;;;;;;;;;;;;;;-1.90;100.00;102333.59;4937772;29;19910;-67
2023/02/06 03:43:17;;;;;;;;;;;;;;;-1.85;100.00;102330.84;4938616;29;19910;-69
2023/02/06 03:45:46;;;;;;;;;;;;;;;-1.83;100.00;102336.88;4937550;29;19911;-68
2023/02/06 03:48:16;;;;;;;;;;;;;;;-1.71;100.00;102336.53;4937293;29;20367;-66
2023/02/06 03:50:43;;;;;;;;;;;;;;;-1.62;100.00;102337.09;4937613;29;20307;-68
2023/02/06 03:53:10;;;;;;;;;;;;;;;-1.54;100.00;102338.63;4937113;29;19911;-68
2023/02/06 03:55:36;;;;;;;;;;;;;;;-1.51;100.00;102338.53;4937085;29;19911;-66
2023/02/06 03:58:04;;;;;;;;;;;;;;;-1.47;100.00;102340.13;4937420;29;19918;-70
2023/02/06 04:00:30;;;;;;;;;;;;;;;-1.49;100.00;102331.47;4937215;29;20326;-67
2023/02/06 04:02:58;;;;;;;;;;;;;;;-1.51;100.00;102338.53;4936763;29;19918;-68
2023/02/06 04:05:24;;;;;;;;;;;;;;;-1.48;100.00;102341.03;4936507;29;19915;-68
2023/02/06 04:07:51;;;;;;;;;;;;;;;-1.47;100.00;102351.44;4927610;29;19911;-67
2023/02/06 04:10:17;;;;;;;;;;;;;;;-1.48;100.00;102346.25;4937971;29;20290;-68
2023/02/06 04:12:42;;;;;;;;;;;;;;;-1.46;100.00;102349.69;4938587;29;19918;-69
2023/02/06 04:15:07;;;;;;;;;;;;;;;-1.45;100.00;102349.63;4938435;29;19917;-68
2023/02/06 04:17:33;;;;;;;;;;;;;;;-1.43;100.00;102354.84;4936708;29;20339;-67
2023/02/06 04:19:58;;;;;;;;;;;;;;;-1.47;100.00;102355.81;4936581;29;19993;-69
2023/02/06 04:22:23;;;;;;;;;;;;;;;-1.47;100.00;102355.81;4919429;29;19911;-68
2023/02/06 04:24:48;;;;;;;;;;;;;;;-1.44;100.00;102355.75;4936738;29;19914;-68
2023/02/06 04:27:14;;;;;;;;;;;;;;;-1.41;100.00;102346.06;4936680;29;20423;-69
2023/02/06 04:29:39;;;;;;;;;;;;;;;-1.40;100.00;102346.91;4936682;29;19911;-66
2023/02/06 04:32:05;;;;;;;;;;;;;;;-1.40;100.00;102346.91;4936696;29;19922;-66
2023/02/06 04:34:31;;;;;;;;;;;;;;;-1.44;100.00;102351.38;4936949;29;20323;-67
2023/02/06 04:36:57;;;;;;;;;;;;;;;-1.48;100.00;102341.03;4936676;29;19917;-66
2023/02/06 04:39:23;;;;;;;;;;;;;;;-1.48;100.00;102348.88;4935243;29;20009;-67
2023/02/06 04:41:49;;;;;;;;;;;;;;;-1.47;100.00;102347.97;4934487;29;20363;-67
2023/02/06 04:47:26;;;;;;;;;;;;;;;-1.41;100.00;102345.19;4933216;29;19920;-66
2023/02/06 04:49:52;;;;;;;;;;;;;;;-1.40;100.00;102346.91;4935374;29;19911;-70
2023/02/06 04:52:17;;;;;;;;;;;;;;;-1.38;100.00;102350.31;4935741;29;19997;-68
2023/02/06 04:54:42;;;;;;;;;;;;;;;-1.39;100.00;102357.31;4934726;29;19910;-67
2023/02/06 04:57:07;;;;;;;;;;;;;;;-1.44;100.00;102350.53;4934245;29;20347;-66
2023/02/06 04:59:33;;;;;;;;;;;;;;;-1.46;100.00;102352.28;4934948;29;20303;-67
2023/02/06 05:01:58;;;;;;;;;;;;;;;-1.44;100.00;102347.91;4934894;29;19911;-66
2023/02/06 05:04:26;;;;;;;;;;;;;;;-1.40;100.00;102352.97;4935226;29;19914;-68
2023/02/06 05:06:52;;;;;;;;;;;;;;;-1.34;100.00;102360.63;4935387;29;20378;-67
2023/02/06 05:09:17;;;;;;;;;;;;;;;-1.31;100.00;102363.16;4935223;29;20013;-66
2023/02/06 05:11:42;;;;;;;;;;;;;;;-1.30;100.00;102364.00;4935864;29;19915;-69
2023/02/06 05:14:08;;;;;;;;;;;;;;;-1.30;100.00;102369.22;4935037;29;19911;-67
2023/02/06 05:16:33;;;;;;;;;;;;;;;-1.28;100.00;102370.03;4935611;29;20017;-67
2023/02/06 05:18:58;;;;;;;;;;;;;;;-1.25;100.00;102370.78;4935166;29;19970;-68
2023/02/06 05:21:24;;;;;;;;;;;;;;;-1.26;100.00;102369.09;4935019;29;19965;-68
2023/02/06 05:23:50;;;;;;;;;;;;;;;-1.24;100.00;102374.25;4935429;29;19910;-68
2023/02/06 05:26:15;;;;;;;;;;;;;;;-1.20;100.00;102386.31;4935438;29;19926;-67
2023/02/06 05:28:41;;;;;;;;;;;;;;;-1.16;100.00;102390.56;4935461;29;19917;-67
2023/02/06 05:31:06;;;;;;;;;;;;;;;-1.13;100.00;102390.47;4935009;29;20020;-68
2023/02/06 05:33:33;;;;;;;;;;;;;;;-1.11;100.00;102390.44;4935680;29;20292;-67
2023/02/06 05:36:05;;;;;;;;;;;;;;;-1.12;100.00;102401.78;4935416;29;19911;-68
2023/02/06 05:38:30;;;;;;;;;;;;;;;-1.11;100.00;102401.75;4935447;29;20001;-67
2023/02/06 05:40:55;;;;;;;;;;;;;;;-1.11;100.00;102401.75;4935276;29;20013;-67
2023/02/06 05:43:21;;;;;;;;;;;;;;;-1.12;100.00;102405.28;4935739;29;19938;-67
2023/02/06 05:45:46;;;;;;;;;;;;;;;-1.14;100.00;102408.84;4935200;29;19933;-68
2023/02/06 05:48:11;;;;;;;;;;;;;;;-1.10;100.00;102413.91;4935061;29;20009;-68
2023/02/06 05:50:37;;;;;;;;;;;;;;;-1.12;100.00;102415.72;4935615;29;19954;-69
2023/02/06 05:53:02;;;;;;;;;;;;;;;-1.14;100.00;102420.16;4935565;29;20458;-69
2023/02/06 05:55:28;;;;;;;;;;;;;;;-1.15;100.00;102421.06;4919129;29;20411;-68
2023/02/06 05:57:53;;;;;;;;;;;;;;;-1.18;100.00;102421.13;4917406;29;19958;-68
2023/02/06 06:00:18;;;;;;;;;;;;;;;-1.19;100.00;102421.16;4935102;29;20275;-68
2023/02/06 06:02:45;;;;;;;;;;;;;;;-1.23;100.00;102423.03;4918105;29;20282;-68
2023/02/06 06:05:11;;;;;;;;;;;;;;;-1.26;100.00;102430.97;4917909;29;19918;-68
2023/02/06 06:07:36;;;;;;;;;;;;;;;-1.30;100.00;102438.03;4935206;29;19910;-68
2023/02/06 06:10:02;;;;;;;;;;;;;;;-1.29;100.00;102444.13;4935289;29;20005;-69
2023/02/06 06:12:28;;;;;;;;;;;;;;;-1.33;100.00;102447.75;4934952;29;19917;-67
2023/02/06 06:14:56;;;;;;;;;;;;;;;-1.29;100.00;102450.22;4917770;29;19910;-67
2023/02/06 06:17:21;;;;;;;;;;;;;;;-1.26;100.00;102455.34;4934863;29;19911;-67
2023/02/06 06:19:47;;;;;;;;;;;;;;;-1.28;100.00;102465.00;4934737;29;20378;-68
2023/02/06 06:22:12;;;;;;;;;;;;;;;-1.38;100.00;102460.94;4935028;29;19923;-67
2023/02/06 06:24:37;;;;;;;;;;;;;;;-1.37;100.00;102467.03;4935015;29;19911;-67
2023/02/06 06:27:03;;;;;;;;;;;;;;;-1.37;100.00;102462.66;4934931;29;20335;-68
2023/02/06 06:29:28;;;;;;;;;;;;;;;-1.34;100.00;102461.72;4934889;29;20302;-68
2023/02/06 06:31:54;;;;;;;;;;;;;;;-1.32;100.00;102465.13;4934996;29;20378;-68
2023/02/06 06:34:45;;;;;;;;;;;;;;;-1.27;100.00;102469.31;4934906;29;19921;-69
2023/02/06 06:37:10;;;;;;;;;;;;;;;-1.26;100.00;102473.63;4934874;29;19919;-68
2023/02/06 06:39:35;;;;;;;;;;;;;;;-1.32;100.00;102480.81;4917709;29;19978;-67
2023/02/06 06:42:03;;;;;;;;;;;;;;;-1.34;100.00;102472.16;4934925;29;19915;-67
2023/02/06 06:44:28;;;;;;;;;;;;;;;-1.34;100.00;102478.25;4934636;29;19915;-67
2023/02/06 06:46:54;;;;;;;;;;;;;;;-1.33;100.00;102477.34;4935446;29;19970;-70
2023/02/06 06:49:19;;;;;;;;;;;;;;;-1.36;100.00;102480.06;4918721;29;19946;-68
2023/02/06 06:51:44;;;;;;;;;;;;;;;-1.38;100.00;102484.47;4934297;29;19917;-67
2023/02/06 06:54:10;;;;;;;;;;;;;;;-1.39;100.00;102484.50;4934265;29;20382;-67
2023/02/06 06:56:35;;;;;;;;;;;;;;;-1.46;100.00;102480.34;4934882;29;19911;-65
2023/02/06 06:59:00;;;;;;;;;;;;;;;-1.46;100.00;102482.94;4935544;29;19918;-67
2023/02/06 07:01:25;;;;;;;;;;;;;;;-1.41;100.00;102489.78;4934670;29;19918;-67
2023/02/06 07:03:52;;;;;;;;;;;;;;;-1.37;100.00;102477.47;4934466;29;19915;-67
2023/02/06 07:06:18;;;;;;;;;;;;;;;-1.27;100.00;102486.75;4934265;29;19919;-67
2023/02/06 07:08:43;;;;;;;;;;;;;;;-1.20;100.00;102484.81;4935022;29;20247;-67
2023/02/06 07:11:15;;;;;;;;;;;;;;;-1.22;100.00;102484.84;4937698;29;20367;-67
2023/02/06 07:13:41;;;;;;;;;;;;;;;-1.18;100.00;102494.31;4937761;29;20019;-67
2023/02/06 07:16:07;;;;;;;;;;;;;;;-1.11;100.00;102490.66;4937453;29;19944;-68
2023/02/06 07:18:33;;;;;;;;;;;;;;;-1.10;100.00;102484.50;4937447;29;19911;-67
2023/02/06 07:20:58;;;;;;;;;;;;;;;-1.02;100.00;102490.38;4937447;29;19911;-68
2023/02/06 07:23:24;;;;;;;;;;;;;;;-0.91;100.00;102494.41;4937445;29;19914;-67
2023/02/06 07:25:49;;;;;;;;;;;;;;;-0.85;100.00;102502.94;4920302;29;19958;-67
2023/02/06 07:28:14;;;;;;;;;;;;;;;-0.79;100.00;102502.75;4937876;29;19910;-68
2023/02/06 07:30:40;;;;;;;;;;;;;;;-0.73;100.00;102512.16;4937479;29;19911;-66
2023/02/06 07:33:05;;;;;;;;;;;;;;;-0.73;100.00;102510.41;4920262;29;19917;-67
2023/02/06 07:35:32;;;;;;;;;;;;;;;-0.78;100.00;102517.53;4937223;29;19915;-68
2023/02/06 07:37:58;;;;;;;;;;;;;;;-0.80;100.00;102528.97;4937340;29;19970;-66
2023/02/06 07:40:23;;;;;;;;;;;;;;;-0.76;100.00;102527.97;4937149;29;19911;-68
2023/02/06 07:42:49;;;;;;;;;;;;;;;-0.76;100.00;102522.72;4937034;29;19911;-69
2023/02/06 07:45:14;;;;;;;;;;;;;;;-0.73;100.00;102527.84;4937113;29;19911;-67
2023/02/06 07:47:39;;;;;;;;;;;;;;;-0.74;100.00;102520.91;4937392;29;20363;-68
2023/02/06 07:50:05;;;;;;;;;;;;;;;-0.63;100.00;102531.88;4937016;29;20376;-67
2023/02/06 07:52:30;;;;;;;;;;;;;;;-0.58;100.00;102527.38;4937582;29;20034;-68
2023/02/06 07:54:55;;;;;;;;;;;;;;;-0.56;100.00;102530.81;4936877;29;19917;-67
2023/02/06 07:57:21;;;;;;;;;;;;;;;-0.52;100.00;102527.19;4937260;29;19917;-66
2023/02/06 07:59:46;;;;;;;;;;;;;;;-0.46;100.00;102529.63;4936944;29;19910;-68
2023/02/06 08:02:11;;;;;;;;;;;;;;;-0.48;100.00;102523.56;4937070;29;19910;-68
2023/02/06 08:04:37;;;;;;;;;;;;;;;-0.52;100.00;102527.19;4937418;29;19962;-67
2023/02/06 08:07:03;;;;;;;;;;;;;;;-0.59;100.00;102528.28;4937800;29;20378;-67
2023/02/06 08:09:28;;;;;;;;;;;;;;;-0.56;100.00;102541.28;4920134;29;19942;-68
2023/02/06 08:11:54;;;;;;;;;;;;;;;-0.54;100.00;102539.47;4937063;29;19927;-67
2023/02/06 08:14:19;;;;;;;;;;;;;;;-0.52;100.00;102542.03;4936849;29;20017;-67
2023/02/06 08:16:45;;;;;;;;;;;;;;;-0.54;100.00;102534.25;4937099;29;19918;-68
2023/02/06 08:19:11;;;;;;;;;;;;;;;-0.53;100.00;102542.94;4936699;29;19914;-67
2023/02/06 08:21:37;;;;;;;;;;;;;;;-0.47;100.00;102535.75;4935990;29;19910;-67
2023/02/06 08:24:03;;;;;;;;;;;;;;;-0.42;100.00;102543.47;4936507;29;20418;-67
2023/02/06 08:26:29;;;;;;;;;;;;;;;-0.39;100.00;102549.44;4919322;29;20019;-67
2023/02/06 08:28:55;;;;;;;;;;;;;;;-0.36;100.00;102554.59;4936376;29;19966;-66
2023/02/06 08:31:40;;;;;;;;;;;;;;;-0.29;99.89;102549.16;4936561;29;19910;-66
2023/02/06 08:34:07;;;;;;;;;;;;;;;-0.26;100.00;102549.94;4936836;29;19966;-67
2023/02/06 08:36:34;;;;;;;;;;;;;;;-0.25;99.56;102556.03;4939156;29;20558;-67
2023/02/06 08:39:00;;;;;;;;;;;;;;;-0.31;99.88;102557.91;4937066;29;19910;-67
2023/02/06 08:41:27;;;;;;;;;;;;;;;-0.33;100.00;102557.09;4937706;29;19953;-66
2023/02/06 08:43:54;;;;;;;;;;;;;;;-0.34;100.00;102550.16;4936882;29;19917;-66
2023/02/06 08:46:20;;;;;;;;;;;;;;;-0.28;99.97;102558.75;4935821;29;19949;-68
2023/02/06 08:48:46;;;;;;;;;;;;;;;-0.37;99.63;102563.34;4936986;29;19997;-66
2023/02/06 08:51:12;;;;;;;;;;;;;;;-0.38;99.64;102553.78;4937125;29;19965;-67
2023/02/06 08:53:38;;;;;;;;;;;;;;;-0.41;99.66;102559.09;4919344;29;19942;-66
2023/02/06 08:56:04;;;;;;;;;;;;;;;-0.41;100.00;102561.72;4935277;29;20009;-67
2023/02/06 08:58:30;;;;;;;;;;;;;;;-0.36;100.00;102565.06;4936128;29;19915;-68
2023/02/06 09:00:55;;;;;;;;;;;;;;;-0.41;100.00;102572.19;4935571;29;20019;-67
2023/02/06 09:03:21;;;;;;;;;;;;;;;-0.36;100.00;102567.66;4935948;29;19919;-67
2023/02/06 09:05:50;;;;;;;;;;;;;;;-0.36;99.66;102572.91;4936139;29;20019;-67
2023/02/06 09:08:15;;;;;;;;;;;;;;;-0.34;99.67;102567.63;4935842;29;19914;-67
2023/02/06 09:10:41;;;;;;;;;;;;;;;-0.28;99.34;102562.22;4935732;29;19921;-66
2023/02/06 09:13:06;;;;;;;;;;;;;;;-0.16;99.50;102574.91;4936038;29;20330;-67
2023/02/06 09:15:32;;;;;;;;;;;;;;;-0.13;99.08;102582.66;4936170;29;19911;-66
2023/02/06 09:17:57;;;;;;;;;;;;;;;-0.02;98.42;102584.91;4935847;29;19958;-67
2023/02/06 09:20:25;;;;;;;;;;;;;;;0.03;97.43;102595.28;4935906;29;19958;-69
2023/02/06 09:22:50;;;;;;;;;;;;;;;0.13;97.61;102599.28;4919228;29;19911;-67
2023/02/06 09:25:16;;;;;;;;;;;;;;;0.25;97.07;102609.34;4936302;29;19910;-68
2023/02/06 09:27:45;;;;;;;;;;;;;;;0.35;96.62;102610.78;4903811;29;19910;-71
2023/02/06 09:30:12;;;;;;;;;;;;;;;0.41;96.15;102617.56;4903340;29;20785;-67
2023/02/06 09:32:37;;;;;;;;;;;;;;;0.44;94.96;102622.69;4936311;29;19926;-68
2023/02/06 09:35:03;;;;;;;;;;;;;;;0.38;94.84;102625.53;4919025;29;19914;-68
2023/02/06 09:37:29;;;;;;;;;;;;;;;0.24;94.93;102626.84;4936153;29;19915;-70
2023/02/06 09:39:54;;;;;;;;;;;;;;;0.24;95.15;102632.06;4935353;29;19917;-68
2023/02/06 09:42:29;;;;;;;;;;;;;;;0.34;95.42;102640.50;4918318;29;19914;-69
2023/02/06 09:45:14;;;;;;;;;;;;;;;0.25;94.14;102635.56;4935286;29;20012;-67
2023/02/06 09:47:43;;;;;;;;;;;;;;;0.25;94.89;102625.06;4934804;29;20275;-70
2023/02/06 09:50:18;;;;;;;;;;;;;;;0.32;94.82;102631.00;4935397;29;19922;-68
2023/02/06 09:53:01;;;;;;;;;;;;;;;0.31;94.37;102624.88;4935413;29;20008;-69
2023/02/06 09:55:41;;;;;;;;;;;;;;;0.26;94.26;102622.41;4935271;29;19958;-71
2023/02/06 09:58:17;;;;;;;;;;;;;;;0.24;95.38;102624.22;4935256;29;20304;-69
2023/02/06 10:00:57;;;;;;;;;;;;;;;0.20;95.26;102625.22;4918193;29;19918;-66
2023/02/06 10:03:29;;;;;;;;;;;;;;;0.19;95.36;102623.50;4935308;29;20013;-66
2023/02/06 10:05:56;;;;;;;;;;;;;;;0.18;95.67;102627.03;4935635;29;20070;-68
2023/02/06 10:08:30;;;;;;;;;;;;;;;0.18;95.48;102619.19;4919150;29;20323;-68
2023/02/06 10:10:57;;;;;;;;;;;;;;;0.08;95.69;102625.63;4935917;29;19911;-69
2023/02/06 10:13:27;;;;;;;;;;;;;;;0.11;95.23;102628.16;4935012;29;20012;-72
2023/02/06 10:15:56;;;;;;;;;;;;;;;0.07;95.38;102637.03;4935258;29;19989;-69
2023/02/06 10:18:45;;;;;;;;;;;;;;;0.00;95.60;102646.00;4934974;29;19914;-69
2023/02/06 10:21:16;;;;;;;;;;;;;;;-0.02;96.11;102632.91;4934916;29;20013;-68
2023/02/06 10:23:49;;;;;;;;;;;;;;;0.03;96.19;102640.66;4935296;29;20058;-69
2023/02/06 10:26:18;;;;;;;;;;;;;;;0.15;96.47;102640.25;4935215;29;19934;-69
2023/02/06 10:28:46;;;;;;;;;;;;;;;0.18;95.60;102637.53;4934792;29;20282;-68
2023/02/06 10:31:12;;;;;;;;;;;;;;;0.19;95.49;102636.63;4934734;29;19938;-69
2023/02/06 10:33:55;;;;;;;;;;;;;;;0.05;95.07;102630.13;4935139;29;20007;-70
2023/02/06 10:36:38;;;;;;;;;;;;;;;-0.04;95.47;102628.63;4934736;29;19967;-70
2023/02/06 10:39:06;;;;;;;;;;;;;;;-0.12;96.32;102620.19;4934972;29;19915;-73
2023/02/06 10:41:34;;;;;;;;;;;;;;;-0.03;96.28;102630.34;4934972;29;19918;-71
2023/02/06 10:44:19;;;;;;;;;;;;;;;-0.03;96.71;102646.06;4935812;29;19917;-69
2023/02/06 10:46:47;;;;;;;;;;;;;;;0.10;96.48;102644.78;4938875;29;19911;-69
2023/02/06 10:49:12;;;;;;;;;;;;;;;0.12;96.30;102650.84;4938618;29;19918;-70
2023/02/06 10:51:42;;;;;;;;;;;;;;;0.13;96.05;102659.53;4938448;29;20266;-71
2023/02/06 10:54:10;;;;;;;;;;;;;;;0.20;95.35;102656.66;4938201;29;19915;-68
2023/02/06 10:56:39;;;;;;;;;;;;;;;0.27;95.95;102660.78;4938330;29;19911;-71
2023/02/06 11:05:42;;;;;;;;;;;;;;;0.30;95.35;102665.09;4934198;29;19962;-70
2023/02/06 11:08:07;;;;;;;;;;;;;;;0.35;95.38;102663.19;4920976;29;19918;-70
2023/02/06 11:10:33;;;;;;;;;;;;;;;0.36;95.47;102664.03;4938131;29;19918;-70
2023/02/06 11:13:32;;;;;;;;;;;;;;;0.40;95.44;102649.94;4937269;29;19915;-71
2023/02/06 11:16:00;;;;;;;;;;;;;;;0.42;95.57;102653.34;4921095;29;19918;-70
2023/02/06 11:18:32;;;;;;;;;;;;;;;0.39;95.45;102643.81;4937889;29;19910;-70
2023/02/06 11:20:58;;;;;;;;;;;;;;;0.45;95.26;102637.53;4937707;29;19917;-71
2023/02/06 11:23:24;;;;;;;;;;;;;;;0.49;95.22;102645.22;4937900;29;19910;-71
2023/02/06 11:25:56;;;;;;;;;;;;;;;0.48;95.02;102637.41;4937903;29;19910;-70
2023/02/06 11:28:23;;;;;;;;;;;;;;;0.32;94.81;102641.47;4937835;29;19922;-70
2023/02/06 11:30:56;;;;;;;;;;;;;;;0.08;94.89;102646.59;4920543;29;19916;-70
2023/02/06 11:33:28;;;;;;;;;;;;;;;-0.02;95.75;102638.16;4938608;29;20367;-73
2023/02/06 11:35:57;;;;;;;;;;;;;;;0.08;95.86;102635.25;4944912;29;19911;-70
2023/02/06 11:38:24;;;;;;;;;;;;;;;0.17;95.72;102645.44;4938109;29;19957;-69
2023/02/06 11:40:55;;;;;;;;;;;;;;;0.22;95.58;102649.63;4920593;29;19950;-69
2023/02/06 11:43:22;;;;;;;;;;;;;;;0.26;95.12;102650.38;4938102;29;19934;-68
2023/02/06 11:46:04;;;;;;;;;;;;;;;0.30;94.53;102655.47;4938869;29;20359;-69
2023/02/06 11:48:29;;;;;;;;;;;;;;;0.26;94.05;102658.22;4937719;29;19925;-68
2023/02/06 11:50:55;;;;;;;;;;;;;;;0.22;94.04;102651.38;4937706;29;19910;-68
2023/02/06 11:53:53;;;;;;;;;;;;;;;0.19;93.99;102668.06;4937651;29;19915;-70
2023/02/06 11:56:20;;;;;;;;;;;;;;;0.14;94.61;102672.59;4935615;29;19918;-70
2023/02/06 11:58:45;;;;;;;;;;;;;;;0.11;94.25;102670.06;4937007;29;20039;-69
2023/02/06 12:01:18;;;;;;;;;;;;;;;0.06;94.13;102676.38;4937271;29;20078;-67
2023/02/06 12:03:50;;;;;;;;;;;;;;;0.03;94.61;102682.56;4936820;29;19911;-71
2023/02/06 12:06:25;;;;;;;;;;;;;;;0.00;94.46;102682.66;4936480;29;19921;-71
2023/02/06 12:08:54;;;;;;;;;;;;;;;0.03;94.81;102672.09;4919831;29;19915;-70
2023/02/06 12:11:25;;;;;;;;;;;;;;;0.08;94.76;102664.94;4936859;29;19910;-70
2023/02/06 12:13:58;;;;;;;;;;;;;;;0.04;95.18;102663.31;4936985;29;19911;-69
2023/02/06 12:16:23;;;;;;;;;;;;;;;-0.02;95.79;102669.59;4936949;29;19917;-69
2023/02/06 12:18:51;;;;;;;;;;;;;;;0.04;95.45;102655.47;4936793;29;19911;-69
2023/02/06 12:21:19;;;;;;;;;;;;;;;0.04;95.45;102658.09;4936811;29;19918;-69
2023/02/06 12:27:13;;;;;;;;;;;;;;;0.06;95.80;102672.00;4937628;29;19917;-69
2023/02/06 12:29:46;;;;;;;;;;;;;;;0.00;96.08;102661.72;4939387;29;19915;-66
2023/02/06 12:32:18;;;;;;;;;;;;;;;-0.06;96.07;102659.25;4937555;29;20334;-71
2023/02/06 12:34:55;;;;;;;;;;;;;;;-0.01;96.05;102659.97;4933388;29;19952;-72
2023/02/06 12:37:25;;;;;;;;;;;;;;;0.04;95.80;102657.22;4957431;29;20017;-70
2023/02/06 12:39:50;;;;;;;;;;;;;;;0.02;95.40;102665.13;4949850;29;19958;-71
2023/02/06 12:42:26;;;;;;;;;;;;;;;-0.02;95.67;102679.22;4918598;29;20374;-68
2023/02/06 12:44:56;;;;;;;;;;;;;;;-0.01;96.05;102676.53;4936038;29;20347;-67
2023/02/06 12:47:33;;;;;;;;;;;;;;;0.02;95.73;102678.25;4936254;29;19964;-67
2023/02/06 12:50:03;;;;;;;;;;;;;;;0.05;95.93;102693.00;4936226;29;19911;-69